Time;durP1;ratioP1;P1;durP2;ratioP2;P2;SDS_P1;SDS_P2;PMS_P1;PMS_P2;Temp;Humidity;BMP_temperature;BMP_pressure;BME280_temperature;BME280_humidity;BME280_pressure;Samples;Min_cycle;Max_cycle;Signal;HPM_P1;HPM_P2
2022/02/21 00:02:19;;;;;;;8.55;3.80;;;;;;;3.31;100.00;98785.48;1702187;84;21085;-64
2022/02/21 00:04:45;;;;;;;9.15;4.12;;;;;;;3.29;100.00;98786.28;1663118;85;21031;-63
2022/02/21 00:07:12;;;;;;;7.40;3.58;;;;;;;3.18;100.00;98783.16;1650418;86;21106;-62
2022/02/21 00:09:38;;;;;;;7.92;3.80;;;;;;;3.07;100.00;98784.88;1647400;86;21011;-64
2022/02/21 00:12:09;;;;;;;6.70;3.52;;;;;;;3.00;100.00;98788.27;1660503;86;21138;-63
2022/02/21 00:14:37;;;;;;;6.47;3.30;;;;;;;3.05;100.00;98792.36;1723159;83;21010;-62
2022/02/21 00:17:05;;;;;;;6.35;3.30;;;;;;;3.01;100.00;98786.66;1722230;83;21032;-62
2022/02/21 00:19:33;;;;;;;6.37;3.42;;;;;;;2.91;100.00;98783.83;1702374;83;21485;-64
2022/02/21 00:22:00;;;;;;;7.35;3.40;;;;;;;2.81;100.00;98779.64;1710742;83;21016;-63
2022/02/21 00:24:29;;;;;;;8.35;3.17;;;;;;;2.78;100.00;98775.28;1709300;83;21028;-63
2022/02/21 00:26:55;;;;;;;6.45;3.02;;;;;;;2.82;100.00;98773.73;1707476;83;21422;-63
2022/02/21 00:29:22;;;;;;;7.80;3.15;;;;;;;2.79;100.00;98776.39;1715301;83;21575;-62
2022/02/21 00:31:51;;;;;;;6.33;3.27;;;;;;;2.67;100.00;98777.52;1707925;83;21036;-62
2022/02/21 00:34:17;;;;;;;7.40;3.37;;;;;;;2.57;100.00;98774.66;1676089;85;21099;-62
2022/02/21 00:36:44;;;;;;;6.87;3.37;;;;;;;2.50;100.00;98776.98;1683812;85;21047;-63
2022/02/21 00:39:11;;;;;;;6.97;3.12;;;;;;;2.55;100.00;98776.80;1687078;84;21064;-63
2022/02/21 00:41:37;;;;;;;7.53;3.37;;;;;;;2.53;100.00;98785.08;1696152;84;21036;-63
2022/02/21 00:44:04;;;;;;;6.22;3.12;;;;;;;2.43;100.00;98785.73;1717007;83;21084;-63
2022/02/21 00:46:31;;;;;;;6.92;3.55;;;;;;;2.34;100.00;98785.00;1715268;83;21523;-62
2022/02/21 00:48:58;;;;;;;;;;;;;;;2.28;100.00;98785.45;1711685;83;21522;-62
2022/02/21 00:51:26;;;;;;;7.58;3.08;;;;;;;2.32;100.00;98781.23;1703467;83;20147;-64
2022/02/21 00:53:52;;;;;;;7.20;3.22;;;;;;;2.28;100.00;98788.66;1723418;82;21528;-63
2022/02/21 00:56:21;;;;;;;5.28;3.17;;;;;;;2.19;100.00;98792.80;1723192;83;21548;-63
2022/02/21 00:58:47;;;;;;;;;;;;;;;2.15;100.00;98788.97;1699190;83;21658;-62
2022/02/21 01:01:13;;;;;;;7.90;3.20;;;;;;;2.22;100.00;98782.92;1719181;83;20115;-63
2022/02/21 01:03:42;;;;;;;6.78;3.33;;;;;;;2.20;100.00;98798.44;1723975;82;21588;-62
2022/02/21 01:06:09;;;;;;;6.53;3.55;;;;;;;2.13;100.00;98791.05;1720666;83;21029;-63
2022/02/21 01:08:35;;;;;;;4.78;2.90;;;;;;;2.19;100.00;98786.09;1725304;83;21064;-64
2022/02/21 01:11:01;;;;;;;5.75;3.17;;;;;;;2.26;100.00;98784.89;1723515;82;21379;-63
2022/02/21 01:13:28;;;;;;;;;;;;;;;2.22;100.00;98792.31;1702790;83;21028;-63
2022/02/21 01:15:54;;;;;;;7.10;3.30;;;;;;;2.14;100.00;98789.48;1701398;83;20157;-63
2022/02/21 01:18:21;;;;;;;5.85;3.50;;;;;;;2.12;100.00;98776.02;1713807;83;21622;-62
2022/02/21 01:20:48;;;;;;;;;;;;;;;2.18;100.00;98759.77;1706866;83;20962;-63
2022/02/21 01:23:16;;;;;;;5.45;3.10;;;;;;;2.16;100.00;98756.48;1698933;83;20132;-62
2022/02/21 01:25:42;;;;;;;6.95;3.55;;;;;;;2.08;100.00;98755.55;1697531;83;21123;-64
2022/02/21 01:28:09;;;;;;;;;;;;;;;2.14;100.00;98762.64;1701750;83;21104;-63
2022/02/21 01:30:36;;;;;;;5.83;3.08;;;;;;;2.15;100.00;98753.53;1705890;83;20119;-63
2022/02/21 01:33:02;;;;;;;5.65;3.22;;;;;;;2.00;100.00;98748.70;1715750;83;21071;-62
2022/02/21 01:35:28;;;;;;;7.20;3.50;;;;;;;1.94;100.00;98748.84;1725084;83;21001;-63
2022/02/21 01:37:55;;;;;;;6.08;3.20;;;;;;;1.96;100.00;98754.78;1717900;83;21053;-63
2022/02/21 01:40:21;;;;;;;5.40;3.30;;;;;;;2.00;100.00;98746.54;1714811;83;20999;-63
2022/02/21 01:42:48;;;;;;;6.67;3.52;;;;;;;1.97;100.00;98745.16;1686546;85;21047;-62
2022/02/21 01:45:14;;;;;;;6.85;3.42;;;;;;;1.90;100.00;98740.98;1709518;84;20998;-63
2022/02/21 01:47:41;;;;;;;8.10;3.50;;;;;;;1.89;100.00;98738.00;1662990;85;21098;-63
2022/02/21 01:50:08;;;;;;;7.72;3.33;;;;;;;1.93;100.00;98740.50;1705068;83;21033;-63
2022/02/21 01:52:36;;;;;;;7.53;3.67;;;;;;;1.88;100.00;98739.05;1699425;84;21013;-63
2022/02/21 01:55:05;;;;;;;6.62;4.15;;;;;;;1.79;100.00;98744.00;1668257;85;21067;-63
2022/02/21 01:57:33;;;;;;;7.00;3.17;;;;;;;1.74;100.00;98737.70;1654634;86;21451;-62
2022/02/21 02:00:03;;;;;;;6.22;3.17;;;;;;;1.75;100.00;98738.82;1696724;84;20918;-63
2022/02/21 02:02:33;;;;;;;5.90;3.27;;;;;;;1.80;100.00;98733.56;1676090;85;21043;-63
2022/02/21 02:05:01;;;;;;;6.53;3.42;;;;;;;1.79;100.00;98731.93;1669736;85;21015;-63
2022/02/21 02:07:27;;;;;;;6.08;3.35;;;;;;;1.70;100.00;98723.16;1697817;82;21056;-63
2022/02/21 02:09:55;;;;;;;6.75;3.35;;;;;;;1.61;100.00;98724.58;1725485;83;21489;-63
2022/02/21 02:12:21;;;;;;;6.03;3.25;;;;;;;1.54;100.00;98715.86;1711521;83;21057;-62
2022/02/21 02:14:47;;;;;;;7.03;3.50;;;;;;;1.58;100.00;98715.15;1722832;83;21005;-63
2022/02/21 02:17:15;;;;;;;5.53;3.10;;;;;;;1.61;100.00;98713.33;1726021;82;20969;-62
2022/02/21 02:19:46;;;;;;;6.70;3.50;;;;;;;1.54;100.00;98715.86;1720842;83;21017;-64
2022/02/21 02:22:17;;;;;;;5.25;3.40;;;;;;;1.45;100.00;98727.50;1719901;83;21302;-62
2022/02/21 02:24:46;;;;;;;6.90;3.70;;;;;;;1.44;100.00;98724.52;1724535;83;21480;-63
2022/02/21 02:27:13;;;;;;;6.53;3.70;;;;;;;1.49;100.00;98723.27;1721450;82;20969;-62
2022/02/21 02:29:42;;;;;;;6.67;3.77;;;;;;;1.46;100.00;98719.20;1727826;83;21013;-63
2022/02/21 02:32:09;;;;;;;6.10;3.60;;;;;;;1.40;100.00;98722.84;1691908;83;20957;-62
2022/02/21 02:34:41;;;;;;;8.10;3.98;;;;;;;1.34;100.00;98721.12;1707418;83;20969;-64
2022/02/21 02:37:08;;;;;;;6.87;3.50;;;;;;;1.38;100.00;98720.91;1702024;83;20950;-62
2022/02/21 02:39:34;;;;;;;5.67;3.10;;;;;;;1.38;100.00;98706.16;1723046;83;21047;-63
2022/02/21 02:42:01;;;;;;;9.05;3.90;;;;;;;1.33;100.00;98715.45;1722121;83;21044;-63
2022/02/21 02:44:27;;;;;;;7.65;4.00;;;;;;;1.26;100.00;98706.73;1724418;83;21068;-63
2022/02/21 02:46:54;;;;;;;6.05;3.40;;;;;;;1.27;100.00;98713.73;1728434;82;21569;-63
2022/02/21 02:49:20;;;;;;;6.85;3.50;;;;;;;1.34;100.00;98707.70;1725946;83;21028;-62
2022/02/21 02:51:47;;;;;;;7.70;3.70;;;;;;;1.35;100.00;98707.16;1724104;83;21005;-62
2022/02/21 02:54:13;;;;;;;7.53;3.55;;;;;;;1.28;100.00;98702.45;1723024;83;21079;-63
2022/02/21 02:56:41;;;;;;;9.43;3.67;;;;;;;1.23;100.00;98707.73;1707475;83;21036;-63
2022/02/21 02:59:08;;;;;;;7.25;3.60;;;;;;;1.17;100.00;98701.42;1687049;84;21079;-63
2022/02/21 03:01:35;;;;;;;6.97;3.40;;;;;;;1.23;100.00;98703.19;1652445;86;21004;-62
2022/02/21 03:04:02;;;;;;;6.80;3.75;;;;;;;1.29;100.00;98706.77;1683796;85;21043;-63
2022/02/21 03:06:29;;;;;;;7.35;4.10;;;;;;;1.26;100.00;98703.23;1657196;85;21027;-63
2022/02/21 03:08:56;;;;;;;7.65;4.17;;;;;;;1.19;100.00;98702.02;1665365;85;21090;-63
2022/02/21 03:11:22;;;;;;;;;;;;;;;1.15;100.00;98708.08;1684895;85;21811;-63
2022/02/21 03:13:49;;;;;;;7.55;3.67;;;;;;;1.20;100.00;98704.19;1686150;85;20099;-63
2022/02/21 03:16:15;;;;;;;6.83;4.47;;;;;;;1.23;100.00;98697.00;1680293;85;21031;-63
2022/02/21 03:18:42;;;;;;;6.55;3.95;;;;;;;1.24;100.00;98699.98;1702112;84;21029;-63
2022/02/21 03:21:08;;;;;;;9.05;4.80;;;;;;;1.17;100.00;98686.69;1706005;84;21497;-63
2022/02/21 03:23:35;;;;;;;9.63;4.62;;;;;;;1.11;100.00;98679.59;1710353;84;21930;-62
2022/02/21 03:26:01;;;;;;;8.98;5.17;;;;;;;1.14;100.00;98675.09;1695868;83;21500;-63
2022/02/21 03:28:28;;;;;;;11.35;5.10;;;;;;;1.23;100.00;98673.69;1671546;85;21170;-63
2022/02/21 03:30:54;;;;;;;8.90;4.33;;;;;;;1.26;100.00;98676.42;1709911;84;21667;-63
2022/02/21 03:33:21;;;;;;;6.75;3.77;;;;;;;1.22;100.00;98678.76;1710120;84;21073;-63
2022/02/21 03:35:48;;;;;;;7.87;4.17;;;;;;;1.17;100.00;98667.92;1709281;84;21509;-63
2022/02/21 03:38:14;;;;;;;9.08;4.10;;;;;;;1.22;100.00;98668.03;1689394;84;21462;-62
2022/02/21 03:40:41;;;;;;;;;;;;;;;1.31;100.00;98660.45;1658740;86;21103;-64
2022/02/21 03:45:39;;;;;;;8.88;4.50;;;;;;;1.22;100.00;98652.47;1808864;79;22917;-62
2022/02/21 03:48:06;;;;;;;7.22;4.08;;;;;;;1.10;100.00;98667.79;1754535;80;21234;-62
2022/02/21 03:50:33;;;;;;;;;;;;;;;1.08;100.00;98663.99;1739834;82;21050;-62
2022/02/21 03:52:59;;;;;;;6.30;4.12;;;;;;;1.15;100.00;98664.67;1743207;82;20115;-62
2022/02/21 03:55:26;;;;;;;7.15;3.75;;;;;;;1.23;100.00;98646.06;1751292;82;21051;-63
2022/02/21 03:57:52;;;;;;;;;;;;;;;1.21;100.00;98642.27;1744911;82;21071;-61
2022/02/21 04:00:18;;;;;;;7.10;3.87;;;;;;;1.15;100.00;98634.37;1736822;82;20116;-63
2022/02/21 04:02:46;;;;;;;6.65;3.85;;;;;;;1.05;100.00;98620.25;1741996;82;21067;-62
2022/02/21 04:05:14;;;;;;;7.87;4.35;;;;;;;1.11;100.00;98617.95;1727489;82;21054;-62
2022/02/21 04:07:42;;;;;;;7.62;3.98;;;;;;;1.24;100.00;98619.00;1737616;82;21557;-62
2022/02/21 04:10:10;;;;;;;10.48;4.17;;;;;;;1.31;100.00;98616.99;1725148;82;21079;-62
2022/02/21 04:12:37;;;;;;;9.93;4.72;;;;;;;1.28;100.00;98613.98;1736168;82;21059;-63
2022/02/21 04:15:05;;;;;;;;;;;;;;;1.28;100.00;98609.95;1732834;82;21029;-63
2022/02/21 04:17:47;;;;;;;10.80;4.03;;;;;;;1.36;100.00;98614.42;1744308;81;20406;-62
2022/02/21 04:20:17;;;;;;;6.65;3.90;;;;;;;1.46;100.00;98609.77;1739911;82;21069;-62
2022/02/21 04:22:44;;;;;;;10.45;4.42;;;;;;;1.50;100.00;98606.37;1725180;82;21102;-62
2022/02/21 04:25:11;;;;;;;7.58;4.28;;;;;;;1.47;100.00;98605.52;1746346;82;21479;-63
2022/02/21 04:27:51;;;;;;;8.18;4.25;;;;;;;1.43;100.00;98594.98;1733482;81;21043;-62
2022/02/21 04:30:23;;;;;;;9.85;4.10;;;;;;;1.52;100.00;98600.78;1745724;82;21051;-62
2022/02/21 04:32:50;;;;;;;7.85;4.20;;;;;;;1.59;100.00;98608.67;1738455;82;21031;-62
2022/02/21 04:35:18;;;;;;;9.68;4.67;;;;;;;1.57;100.00;98601.38;1730225;82;21059;-62
2022/02/21 04:37:45;;;;;;;11.80;4.53;;;;;;;1.55;100.00;98599.47;1727749;82;21019;-62
2022/02/21 04:40:13;;;;;;;;;;;;;;;1.60;100.00;98600.36;1742538;82;21023;-62
2022/02/21 04:42:40;;;;;;;10.32;4.65;;;;;;;1.69;100.00;98595.44;1743498;82;20132;-62
2022/02/21 04:45:07;;;;;;;8.93;4.85;;;;;;;1.62;100.00;98604.16;1721676;82;21035;-62
2022/02/21 04:47:35;;;;;;;11.35;5.30;;;;;;;1.59;100.00;98603.31;1737666;82;21083;-62
2022/02/21 04:50:04;;;;;;;8.83;4.80;;;;;;;1.67;100.00;98604.23;1735705;82;21101;-61
2022/02/21 04:52:33;;;;;;;9.35;4.75;;;;;;;1.77;100.00;98598.52;1731011;82;21046;-62
2022/02/21 04:54:59;;;;;;;10.38;5.15;;;;;;;1.78;100.00;98600.16;1701722;84;21541;-62
2022/02/21 04:57:26;;;;;;;13.15;6.08;;;;;;;1.71;100.00;98585.26;1690507;84;21078;-62
2022/02/21 04:59:53;;;;;;;11.20;5.22;;;;;;;1.77;100.00;98589.13;1695323;84;21533;-63
2022/02/21 05:02:19;;;;;;;10.55;5.28;;;;;;;1.87;100.00;98587.16;1707670;84;21620;-62
2022/02/21 05:04:46;;;;;;;;;;;;;;;1.96;100.00;98592.39;1685990;84;21054;-62
2022/02/21 05:07:12;;;;;;;8.70;4.83;;;;;;;1.93;100.00;98579.47;1682118;85;20539;-61
2022/02/21 05:09:39;;;;;;;12.03;5.67;;;;;;;1.83;100.00;98582.81;1682645;85;21110;-62
2022/02/21 05:12:06;;;;;;;11.65;5.20;;;;;;;1.84;100.00;98582.28;1697637;84;21553;-62
2022/02/21 05:14:33;;;;;;;11.33;5.45;;;;;;;1.93;100.00;98572.23;1695919;84;21090;-62
2022/02/21 05:16:59;;;;;;;11.68;6.10;;;;;;;2.00;100.00;98573.41;1677344;84;21027;-62
2022/02/21 05:19:25;;;;;;;12.33;6.15;;;;;;;1.99;100.00;98570.43;1683609;84;21094;-62
2022/02/21 05:21:53;;;;;;;14.25;5.78;;;;;;;1.99;100.00;98578.48;1689377;84;21070;-62
2022/02/21 05:24:20;;;;;;;12.55;5.80;;;;;;;1.97;100.00;98572.03;1687487;84;21102;-62
2022/02/21 05:26:46;;;;;;;11.18;5.28;;;;;;;2.06;100.00;98566.23;1682666;84;20963;-62
2022/02/21 05:29:13;;;;;;;10.82;5.22;;;;;;;2.19;100.00;98568.60;1689208;84;21122;-62
2022/02/21 05:31:40;;;;;;;12.25;5.67;;;;;;;2.23;100.00;98559.78;1684888;84;21095;-62
2022/02/21 05:34:06;;;;;;;13.72;6.30;;;;;;;2.21;100.00;98561.10;1676938;84;21083;-62
2022/02/21 05:36:33;;;;;;;11.45;5.70;;;;;;;2.21;100.00;98567.81;1671722;84;21047;-63
2022/02/21 05:38:59;;;;;;;10.63;5.00;;;;;;;2.25;100.00;98563.58;1697201;84;21139;-62
2022/02/21 05:41:25;;;;;;;11.70;5.20;;;;;;;2.39;100.00;98554.94;1676279;84;21015;-62
2022/02/21 05:43:52;;;;;;;;;;;;;;;2.45;100.00;98552.59;1673384;84;21110;-62
2022/02/21 05:46:19;;;;;;;13.18;5.37;;;;;;;2.43;100.00;98561.44;1662822;85;20109;-63
2022/02/21 05:48:45;;;;;;;11.80;5.45;;;;;;;2.36;100.00;98554.61;1662899;86;21576;-62
2022/02/21 05:51:12;;;;;;;12.05;4.70;;;;;;;2.38;100.00;98547.11;1663533;85;21142;-62
2022/02/21 05:53:42;;;;;;;11.40;4.97;;;;;;;2.51;100.00;98546.22;1680819;85;21071;-61
2022/02/21 05:56:08;;;;;;;8.20;4.65;;;;;;;2.61;100.00;98548.77;1673691;85;21130;-61
2022/02/21 05:58:34;;;;;;;12.03;5.47;;;;;;;2.59;100.00;98544.98;1663355;85;21071;-63
2022/02/21 06:01:01;;;;;;;8.75;5.08;;;;;;;2.57;100.00;98542.27;1673221;85;21526;-62
2022/02/21 06:03:27;;;;;;;11.10;5.78;;;;;;;2.58;100.00;98535.84;1671077;85;21512;-62
2022/02/21 06:05:54;;;;;;;12.85;5.20;;;;;;;2.72;100.00;98541.94;1724057;82;21554;-62
2022/02/21 06:08:20;;;;;;;11.80;4.78;;;;;;;2.80;100.00;98535.33;1717955;82;21634;-62
2022/02/21 06:10:47;;;;;;;9.30;4.37;;;;;;;2.76;100.00;98530.16;1713281;82;21063;-62
2022/02/21 06:13:13;;;;;;;15.63;5.45;;;;;;;2.73;100.00;98523.95;1721150;82;21143;-62
2022/02/21 06:15:40;;;;;;;9.85;4.95;;;;;;;2.73;100.00;98525.30;1713160;82;21063;-62
2022/02/21 06:18:06;;;;;;;9.03;4.50;;;;;;;2.84;100.00;98517.08;1733030;82;21071;-61
2022/02/21 06:20:33;;;;;;;8.48;4.67;;;;;;;2.93;100.00;98511.55;1719585;82;21079;-62
2022/02/21 06:22:59;;;;;;;10.03;4.97;;;;;;;2.92;100.00;98520.67;1718367;82;21130;-62
2022/02/21 06:25:26;;;;;;;9.80;4.33;;;;;;;2.92;100.00;98511.27;1724104;82;20988;-62
2022/02/21 06:27:52;;;;;;;11.25;3.83;;;;;;;2.94;100.00;98515.84;1709922;82;21066;-63
2022/02/21 06:30:18;;;;;;;8.45;4.53;;;;;;;3.04;100.00;98506.28;1727972;82;21083;-63
2022/02/21 06:32:45;;;;;;;8.45;4.70;;;;;;;3.15;100.00;98508.02;1726735;82;21535;-63
2022/02/21 06:35:11;;;;;;;12.05;4.60;;;;;;;3.18;100.00;98510.20;1725932;82;21621;-63
2022/02/21 06:37:43;;;;;;;8.03;4.35;;;;;;;3.21;100.00;98504.30;1732548;82;21080;-63
2022/02/21 06:40:12;;;;;;;8.95;4.42;;;;;;;3.23;100.00;98502.98;1725643;82;21534;-63
2022/02/21 06:42:38;;;;;;;8.08;4.03;;;;;;;3.25;100.00;98498.70;1737096;82;21092;-63
2022/02/21 06:45:06;;;;;;;8.15;3.90;;;;;;;3.33;100.00;98496.34;1720350;82;21021;-63
2022/02/21 06:47:33;;;;;;;9.93;4.95;;;;;;;3.44;100.00;98502.09;1696244;83;21679;-63
2022/02/21 06:50:01;;;;;;;9.03;3.95;;;;;;;3.48;100.00;98501.05;1716872;82;21533;-63
2022/02/21 06:52:28;;;;;;;6.85;3.70;;;;;;;3.48;100.00;98495.14;1734537;82;21082;-63
2022/02/21 06:54:55;;;;;;;8.53;4.60;;;;;;;3.50;100.00;98490.87;1731626;82;21038;-63
2022/02/21 06:57:23;;;;;;;7.50;4.03;;;;;;;3.51;100.00;98485.74;1748147;82;21039;-63
2022/02/21 06:59:50;;;;;;;7.70;4.15;;;;;;;3.62;100.00;98490.14;1745042;82;21039;-63
2022/02/21 07:02:17;;;;;;;8.33;4.30;;;;;;;3.75;100.00;98488.38;1738037;82;21055;-62
2022/02/21 07:04:44;;;;;;;;;;;;;;;3.80;100.00;98488.41;1707665;84;21080;-62
2022/02/21 07:07:10;;;;;;;8.48;4.62;;;;;;;3.82;100.00;98485.47;1671322;84;20574;-62
2022/02/21 07:09:38;;;;;;;10.03;4.47;;;;;;;3.80;100.00;98487.06;1733415;81;21533;-62
2022/02/21 07:12:05;;;;;;;7.00;4.10;;;;;;;3.86;100.00;98482.55;1741127;82;20948;-63
2022/02/21 07:14:32;;;;;;;11.28;4.22;;;;;;;3.92;100.00;98480.97;1746040;82;20995;-62
2022/02/21 07:16:58;;;;;;;7.40;3.62;;;;;;;3.98;100.00;98473.72;1747674;82;20983;-63
2022/02/21 07:19:25;;;;;;;9.85;4.00;;;;;;;4.15;100.00;98474.36;1739905;82;20979;-64
2022/02/21 07:21:52;;;;;;;10.63;4.00;;;;;;;4.27;100.00;98474.98;1733181;82;21471;-63
2022/02/21 07:24:18;;;;;;;7.85;4.20;;;;;;;4.31;100.00;98475.27;1736236;82;21648;-63
2022/02/21 07:26:45;;;;;;;6.30;3.85;;;;;;;4.32;100.00;98477.68;1676097;85;21576;-64
2022/02/21 07:29:11;;;;;;;8.58;3.85;;;;;;;4.34;100.00;98467.47;1732340;82;21502;-64
2022/02/21 07:31:38;;;;;;;8.08;3.77;;;;;;;4.41;100.00;98469.39;1736744;82;21501;-64
2022/02/21 07:34:04;;;;;;;8.78;3.92;;;;;;;4.44;100.00;98466.17;1732920;82;21553;-64
2022/02/21 07:36:31;;;;;;;8.73;3.40;;;;;;;4.47;100.00;98471.03;1738001;80;21586;-63
2022/02/21 07:38:58;;;;;;;7.45;3.85;;;;;;;4.48;100.00;98464.58;1738718;82;21082;-63
2022/02/21 07:41:25;;;;;;;5.33;3.33;;;;;;;4.53;100.00;98448.16;1741915;82;21019;-64
2022/02/21 07:43:51;;;;;;;6.85;3.52;;;;;;;4.57;100.00;98447.91;1710529;84;21112;-66
2022/02/21 07:46:18;;;;;;;5.83;3.40;;;;;;;4.63;100.00;98449.00;1684806;84;21074;-65
2022/02/21 07:48:44;;;;;;;7.22;3.83;;;;;;;4.80;100.00;98450.12;1697311;83;21144;-65
2022/02/21 07:51:11;;;;;;;7.50;3.50;;;;;;;4.97;100.00;98448.01;1692994;83;21057;-64
2022/02/21 07:53:38;;;;;;;5.33;2.95;;;;;;;5.05;100.00;98450.72;1672980;84;21719;-65
2022/02/21 07:56:05;;;;;;;6.35;3.20;;;;;;;5.13;100.00;98449.67;1706743;83;21500;-66
2022/02/21 07:58:32;;;;;;;7.30;3.45;;;;;;;5.23;100.00;98447.52;1675378;84;21133;-63
2022/02/21 08:00:58;;;;;;;5.33;2.98;;;;;;;5.31;100.00;98450.52;1681434;84;21062;-61
2022/02/21 08:03:25;;;;;;;;;;;;;;;5.41;100.00;98448.34;1696321;83;21070;-63
2022/02/21 08:05:55;;;;;;;6.95;3.20;;;;;;;5.45;100.00;98443.50;1720781;83;20164;-64
2022/02/21 08:08:20;;;;;;;6.37;2.83;;;;;;;5.47;100.00;98441.86;1704500;83;21046;-62
2022/02/21 08:10:46;;;;;;;7.42;3.30;;;;;;;5.50;100.00;98438.09;1711767;83;21048;-62
2022/02/21 08:13:13;;;;;;;7.28;3.65;;;;;;;5.57;100.00;98440.51;1688327;83;21142;-65
2022/02/21 08:15:39;;;;;;;5.62;2.75;;;;;;;5.63;100.00;98434.05;1724095;83;21085;-65
2022/02/21 08:18:06;;;;;;;8.13;4.10;;;;;;;5.72;100.00;98428.36;1682225;85;21058;-64
2022/02/21 08:20:32;;;;;;;;;;;;;;;5.78;100.00;98431.31;1707637;83;21046;-64
2022/02/21 08:22:59;;;;;;;6.72;3.60;;;;;;;5.81;100.00;98431.33;1714497;83;20100;-65
2022/02/21 08:25:25;;;;;;;7.33;3.55;;;;;;;5.78;100.00;98428.61;1684437;84;21061;-64
2022/02/21 08:27:52;;;;;;;8.28;4.28;;;;;;;5.89;100.00;98411.34;1689683;84;21037;-63
2022/02/21 08:30:21;;;;;;;5.70;3.70;;;;;;;6.03;100.00;98413.47;1695253;84;21085;-65
2022/02/21 08:32:48;;;;;;;8.25;4.15;;;;;;;6.13;100.00;98411.55;1694375;84;21560;-63
2022/02/21 08:35:15;;;;;;;7.42;3.33;;;;;;;6.23;100.00;98415.59;1695948;84;21017;-64
2022/02/21 08:37:41;;;;;;;6.33;3.25;;;;;;;6.29;100.00;98411.78;1691673;83;21094;-65
2022/02/21 08:40:11;;;;;;;8.48;3.87;;;;;;;6.38;100.00;98414.16;1685547;84;21132;-64
2022/02/21 08:42:38;;;;;;;6.83;3.50;;;;;;;6.50;100.00;98403.04;1693211;83;21121;-65
2022/02/21 08:45:06;;;;;;;6.95;3.80;;;;;;;6.64;100.00;98402.70;1704186;83;21095;-65
2022/02/21 08:47:33;;;;;;;6.53;3.27;;;;;;;6.77;100.00;98388.56;1646083;85;21095;-64
2022/02/21 08:50:00;;;;;;;11.55;6.37;;;;;;;6.87;100.00;98386.36;1690247;83;21037;-64
2022/02/21 08:52:26;;;;;;;7.90;4.03;;;;;;;6.87;100.00;98391.20;1668169;85;21696;-63
2022/02/21 08:54:52;;;;;;;9.68;4.78;;;;;;;6.92;100.00;98380.36;1666178;85;21663;-64
2022/02/21 08:57:19;;;;;;;6.90;3.62;;;;;;;6.98;100.00;98378.41;1663537;86;21067;-66
2022/02/21 08:59:46;;;;;;;7.97;4.67;;;;;;;7.07;100.00;98374.58;1666247;84;21007;-65
2022/02/21 09:02:12;;;;;;;5.67;3.33;;;;;;;7.15;100.00;98364.52;1745033;82;21062;-65
2022/02/21 09:04:38;;;;;;;;;;;;;;;7.17;100.00;98366.38;1737646;81;20977;-62
2022/02/21 09:07:05;;;;;;;11.30;6.85;;;;;;;7.24;100.00;98356.84;1713901;81;20105;-65
2022/02/21 09:09:31;;;;;;;7.47;2.90;;;;;;;7.27;100.00;98356.28;1719197;82;21494;-66
2022/02/21 09:11:58;;;;;;;6.62;3.33;;;;;;;7.36;100.00;98356.48;1727949;82;21352;-65
2022/02/21 09:14:25;;;;;;;6.10;2.80;;;;;;;7.40;100.00;98346.14;1709610;82;21581;-64
2022/02/21 09:16:51;;;;;;;7.90;4.10;;;;;;;7.46;100.00;98339.61;1733653;82;21578;-64
2022/02/21 09:19:18;;;;;;;6.58;3.52;;;;;;;7.53;100.00;98337.91;1719187;82;21115;-63
2022/02/21 09:21:45;;;;;;;5.62;2.67;;;;;;;7.64;100.00;98334.02;1711877;82;21024;-63
2022/02/21 09:24:11;;;;;;;;;;;;;;;7.74;100.00;98333.09;1729351;82;21028;-64
2022/02/21 09:26:37;;;;;;;7.22;2.70;;;;;;;7.80;100.00;98323.81;1716712;82;20137;-63
2022/02/21 09:29:04;;;;;;;5.55;2.40;;;;;;;7.78;100.00;98326.02;1731404;82;21015;-64
2022/02/21 09:31:32;;;;;;;5.00;2.55;;;;;;;7.83;100.00;98321.33;1726998;82;21558;-64
2022/02/21 09:33:59;;;;;;;6.47;3.67;;;;;;;7.83;100.00;98334.09;1734853;82;21016;-64
2022/02/21 09:36:25;;;;;;;5.40;2.02;;;;;;;7.83;100.00;98336.23;1714100;82;21003;-64
2022/02/21 09:38:52;;;;;;;6.33;3.50;;;;;;;7.88;100.00;98332.13;1710051;82;21051;-63
2022/02/21 09:41:20;;;;;;;5.78;2.83;;;;;;;7.86;99.89;98331.62;1719809;82;21046;-64
2022/02/21 09:43:46;;;;;;;6.62;3.50;;;;;;;7.85;100.00;98329.19;1716378;82;21051;-64
2022/02/21 09:46:13;;;;;;;;;;;;;;;7.88;100.00;98331.31;1718720;83;21074;-64
2022/02/21 09:48:40;;;;;;;7.42;3.35;;;;;;;7.89;100.00;98331.04;1741010;82;20119;-65
2022/02/21 09:51:07;;;;;;;6.25;2.37;;;;;;;7.84;100.00;98337.05;1720799;82;20991;-64
2022/02/21 09:56:34;;;;;;;5.60;2.60;;;;;;;7.81;100.00;98324.08;1803623;78;23305;-62
2022/02/21 09:59:01;;;;;;;4.95;2.40;;;;;;;7.75;100.00;98330.66;1741705;80;20995;-65
2022/02/21 10:01:27;;;;;;;8.33;2.83;;;;;;;7.74;100.00;98327.13;1737958;82;21086;-65
2022/02/21 10:03:57;;;;;;;7.90;2.67;;;;;;;7.73;100.00;98311.97;1731122;82;21055;-65
2022/02/21 10:06:26;;;;;;;4.92;2.52;;;;;;;7.74;100.00;98310.07;1722200;82;21585;-65
2022/02/21 10:09:09;;;;;;;11.53;6.40;;;;;;;7.86;100.00;98299.66;1721228;82;21085;-65
2022/02/21 10:11:47;;;;;;;8.35;4.40;;;;;;;7.99;100.00;98300.30;1717246;82;20923;-64
2022/02/21 10:14:18;;;;;;;4.60;2.58;;;;;;;8.08;98.21;98296.41;1748712;81;21062;-65
2022/02/21 10:16:47;;;;;;;10.00;5.87;;;;;;;8.11;95.23;98300.70;1722976;82;20959;-64
2022/02/21 10:19:26;;;;;;;7.47;2.95;;;;;;;8.04;95.88;98294.83;1726387;82;21035;-65
2022/02/21 10:22:12;;;;;;;5.95;3.37;;;;;;;8.04;96.53;98289.41;1708111;82;20983;-64
2022/02/21 10:24:46;;;;;;;4.75;2.40;;;;;;;8.07;98.37;98298.31;1730741;82;21031;-65
2022/02/21 10:27:26;;;;;;;5.17;1.95;;;;;;;8.13;98.42;98294.43;1731497;82;20979;-64
2022/02/21 10:30:02;;;;;;;6.42;2.90;;;;;;;8.24;97.97;98297.81;1722686;82;21074;-67
2022/02/21 10:32:34;;;;;;;8.65;4.28;;;;;;;8.31;97.00;98293.69;1723666;82;21034;-66
2022/02/21 10:35:17;;;;;;;10.70;5.17;;;;;;;8.36;96.85;98293.60;1732819;82;21058;-66
2022/02/21 10:37:47;;;;;;;8.83;4.67;;;;;;;8.41;95.28;98282.70;1740061;82;21047;-66
2022/02/21 10:40:20;;;;;;;8.85;5.45;;;;;;;8.40;96.23;98284.33;1727911;82;21022;-66
2022/02/21 10:43:11;;;;;;;13.98;7.58;;;;;;;8.38;96.24;98288.71;1731622;81;21050;-66
2022/02/21 10:45:39;;;;;;;12.33;7.25;;;;;;;8.35;97.97;98273.03;1734661;82;20989;-66
2022/02/21 10:48:12;;;;;;;8.18;4.95;;;;;;;8.33;99.28;98271.14;1750273;80;21047;-66
2022/02/21 10:50:55;;;;;;;6.55;4.05;;;;;;;8.30;99.36;98273.09;1737514;81;21011;-66
2022/02/21 10:53:23;;;;;;;6.10;3.10;;;;;;;8.27;100.00;98266.87;1722308;82;21107;-66
2022/02/21 10:55:51;;;;;;;10.08;5.17;;;;;;;8.20;100.00;98271.84;1723065;82;21035;-67
2022/02/21 10:58:25;;;;;;;7.28;4.30;;;;;;;8.13;100.00;98267.33;1724143;81;21071;-63
2022/02/21 11:00:53;;;;;;;10.10;4.80;;;;;;;8.05;100.00;98269.32;1717188;82;21172;-64
2022/02/21 11:03:23;;;;;;;10.78;4.10;;;;;;;8.01;100.00;98265.03;1721150;82;21075;-65
2022/02/21 11:05:51;;;;;;;8.35;4.72;;;;;;;7.97;100.00;98261.86;1726590;82;20999;-65
2022/02/21 11:08:20;;;;;;;7.62;3.77;;;;;;;7.90;100.00;98258.70;1720567;82;21055;-66
2022/02/21 11:10:57;;;;;;;17.70;7.50;;;;;;;7.88;100.00;98259.52;1724623;82;21019;-65
2022/02/21 16:02:08;;;;;;;10.30;5.22;;;;;;;7.43;100.00;98065.92;1816983;78;22411;-61
2022/02/21 16:04:33;;;;;;;8.98;4.75;;;;;;;7.35;100.00;98062.50;1760187;81;21007;-61
2022/02/21 16:07:00;;;;;;;8.43;4.78;;;;;;;7.36;100.00;98064.13;1760019;81;21014;-60
2022/02/21 16:09:26;;;;;;;8.08;4.53;;;;;;;7.35;100.00;98072.79;1760443;80;21205;-61
2022/02/21 16:11:53;;;;;;;9.75;4.37;;;;;;;7.34;100.00;98076.58;1757954;81;21002;-62
2022/02/21 16:14:19;;;;;;;7.33;4.12;;;;;;;7.32;100.00;98072.02;1759689;80;21567;-61
2022/02/21 16:16:46;;;;;;;7.72;4.67;;;;;;;7.32;100.00;98075.27;1744604;81;21112;-61
2022/02/21 16:19:12;;;;;;;7.45;4.37;;;;;;;7.31;100.00;98070.41;1747837;80;21104;-61
2022/02/21 16:21:39;;;;;;;;;;;;;;;7.29;100.00;98075.86;1763080;81;21117;-61
2022/02/21 16:24:07;;;;;;;9.78;4.62;;;;;;;7.27;100.00;98071.27;1760327;80;20108;-62
2022/02/21 16:26:34;;;;;;;8.70;4.37;;;;;;;7.19;100.00;98075.41;1759492;81;21057;-61
2022/02/21 16:29:00;;;;;;;;;;;;;;;7.19;100.00;98072.70;1762068;80;21441;-61
2022/02/21 16:31:27;;;;;;;9.55;4.97;;;;;;;7.21;100.00;98065.13;1759650;81;20149;-61
2022/02/21 16:33:53;;;;;;;10.65;5.35;;;;;;;7.17;100.00;98075.45;1759338;80;21018;-61